Time;durP1;ratioP1;P1;durP2;ratioP2;P2;SDS_P1;SDS_P2;PMS_P1;PMS_P2;Temp;Humidity;BMP_temperature;BMP_pressure;BME280_temperature;BME280_humidity;BME280_pressure;Samples;Min_cycle;Max_cycle;Signal;HPM_P1;HPM_P2
2022/06/03 04:45:33;;;;;;;7.30;3.67;;;;;;;20.16;56.98;101042.69;5598958;31;126106;-55
2022/06/03 04:49:04;;;;;;;4.70;3.62;;;;;;;20.16;56.98;101042.69;5603843;31;33476;-55
2022/06/03 04:52:46;;;;;;;4.28;3.42;;;;;;;19.76;60.26;101038.69;5580471;31;33651;-55
2022/06/03 04:56:19;;;;;;;6.72;3.22;;;;;;;19.85;66.84;101039.47;5603274;31;33535;-55
2022/06/03 05:00:09;;;;;;;5.75;3.25;;;;;;;19.88;61.05;101036.09;5560365;31;33417;-55
2022/06/03 05:03:32;;;;;;;4.28;3.62;;;;;;;19.95;61.10;101049.97;5570674;31;33423;-55
2022/06/03 05:06:59;;;;;;;5.30;3.62;;;;;;;20.02;57.11;101036.66;5583995;32;34224;-56
2022/06/03 05:10:17;;;;;;;4.68;3.37;;;;;;;20.11;61.53;101048.31;5583619;31;33703;-56
2022/06/03 05:13:49;;;;;;;5.75;3.78;;;;;;;20.32;61.46;101045.62;5583882;31;33640;-55
2022/06/03 05:17:16;;;;;;;4.50;3.75;;;;;;;20.54;64.89;101049.22;5583809;32;33581;-56
2022/06/03 05:20:38;;;;;;;7.25;4.37;;;;;;;20.78;57.79;101052.06;5583596;32;34170;-55
2022/06/03 05:23:52;;;;;;;6.05;3.65;;;;;;;20.91;55.40;101055.66;5583665;31;33660;-55
2022/06/03 05:27:19;;;;;;;5.22;4.00;;;;;;;21.10;54.65;101058.69;5583669;31;33630;-55
2022/06/03 05:31:08;;;;;;;4.57;3.78;;;;;;;21.19;54.77;101064.06;5582327;32;34343;-56
2022/06/03 05:34:40;;;;;;;5.93;3.70;;;;;;;21.36;55.82;101065.88;5583508;32;33772;-55
2022/06/03 05:37:54;;;;;;;15.75;5.07;;;;;;;21.54;56.35;101067.25;5568605;32;33761;-56
2022/06/03 05:42:23;;;;;;;7.87;3.80;;;;;;;21.60;53.71;101072.50;5563968;32;33519;-55
2022/06/03 05:44:58;;;;;;;5.97;4.00;;;;;;;21.71;56.22;101070.94;5563761;32;34265;-55
2022/06/03 05:48:19;;;;;;;5.35;3.50;;;;;;;21.85;54.31;101065.94;5563807;32;34279;-55
2022/06/03 05:51:48;;;;;;;6.15;4.10;;;;;;;21.89;55.08;101072.34;5563927;32;33581;-55
2022/06/03 05:55:10;;;;;;;6.12;3.83;;;;;;;22.01;51.41;101072.31;5557161;32;34193;-55
2022/06/03 05:58:55;;;;;;;6.62;4.50;;;;;;;22.05;51.74;101076.00;5550796;32;33730;-55
2022/06/03 06:02:03;;;;;;;6.18;3.80;;;;;;;22.14;51.42;101070.41;5542837;32;33638;-56
2022/06/03 06:05:30;;;;;;;6.10;4.18;;;;;;;22.27;51.58;101068.50;5550838;32;33663;-55
2022/06/03 06:08:50;;;;;;;7.07;4.10;;;;;;;22.37;49.54;101070.75;5550489;32;33603;-55
2022/06/03 06:12:11;;;;;;;8.07;3.70;;;;;;;22.40;49.96;101069.28;5550298;32;33648;-57
2022/06/03 06:15:34;;;;;;;9.57;4.10;;;;;;;22.60;51.00;101059.34;5550103;32;33679;-56
2022/06/03 06:18:42;;;;;;;8.25;4.32;;;;;;;22.69;49.88;101060.81;5550334;32;33414;-55
2022/06/03 06:21:58;;;;;;;6.75;4.20;;;;;;;22.83;51.88;101067.81;5566261;32;33716;-56
2022/06/03 06:25:10;;;;;;;9.48;4.20;;;;;;;22.91;49.88;101067.69;5566871;32;34344;-56
2022/06/03 06:28:43;;;;;;;12.23;4.18;;;;;;;23.04;49.81;101060.25;5553828;32;33577;-55
2022/06/03 06:32:17;;;;;;;5.20;3.72;;;;;;;23.13;48.97;101060.91;5567380;32;34179;-55
2022/06/03 06:35:37;;;;;;;9.60;4.60;;;;;;;23.13;48.41;101060.91;5567849;32;33139;-55
2022/06/03 06:39:07;;;;;;;5.45;4.00;;;;;;;23.22;48.08;101071.69;5568504;32;33563;-55
2022/06/03 06:42:46;;;;;;;8.50;4.53;;;;;;;23.26;46.42;101064.37;5528881;32;33753;-55
2022/06/03 06:45:56;;;;;;;8.15;3.92;;;;;;;23.32;47.55;101062.19;5555752;32;34263;-56
2022/06/03 06:49:05;;;;;;;7.57;3.80;;;;;;;23.44;46.76;101062.09;5564634;32;34267;-55
2022/06/03 06:52:13;;;;;;;12.10;4.00;;;;;;;23.51;46.20;101056.84;5561524;32;32009;-56
2022/06/03 06:55:22;;;;;;;8.82;4.03;;;;;;;23.59;46.49;101055.88;5569120;32;34263;-56
2022/06/03 06:58:34;;;;;;;6.35;3.40;;;;;;;23.60;46.41;101045.72;5569436;32;33634;-56
2022/06/03 07:01:55;;;;;;;7.15;3.83;;;;;;;23.72;46.42;101050.34;5569554;32;33627;-55
2022/06/03 07:05:08;;;;;;;7.25;3.47;;;;;;;23.84;45.66;101045.59;5569515;32;33704;-55
2022/06/03 07:08:23;;;;;;;3.45;3.10;;;;;;;23.86;44.79;101039.75;5568585;32;33578;-56
2022/06/03 07:11:37;;;;;;;15.90;3.70;;;;;;;23.98;44.64;101047.88;5569323;32;33600;-56
2022/06/03 07:14:54;;;;;;;7.25;3.40;;;;;;;24.05;44.12;101034.34;5569259;32;34192;-55
2022/06/03 07:21:57;;;;;;;4.35;3.17;;;;;;;24.22;42.36;101035.88;5569496;32;33669;-56
2022/06/03 07:28:47;;;;;;;5.00;3.30;;;;;;;24.29;40.84;101038.00;5754331;27;20110;-92
2022/06/03 07:32:00;;;;;;;;;;;;;;;24.37;41.41;101029.59;5390181;33;34436;-92
2022/06/03 07:35:28;;;;;;;7.37;3.00;;;;;;;24.43;42.06;101015.63;5396678;33;34031;-92
2022/06/03 07:38:45;;;;;;;5.15;2.95;;;;;;;24.56;41.37;101020.59;5388784;33;33793;-92
2022/06/03 07:41:54;;;;;;;7.60;3.22;;;;;;;24.57;40.69;101015.94;5396610;33;33690;-91
2022/06/03 07:45:03;;;;;;;4.20;3.47;;;;;;;24.65;41.44;101017.66;5397737;33;33931;-91
2022/06/03 07:48:11;;;;;;;5.10;3.00;;;;;;;24.69;41.06;101015.00;5398064;33;33264;-92
2022/06/03 07:51:36;;;;;;;9.13;3.12;;;;;;;24.79;41.20;101023.44;5398361;33;34395;-92
2022/06/03 07:54:50;;;;;;;2.85;2.58;;;;;;;24.83;39.51;101021.56;5398613;33;33795;-92
2022/06/03 07:57:58;;;;;;;3.90;2.85;;;;;;;24.85;39.51;101013.75;5398371;33;33714;-92
2022/06/03 08:01:01;;;;;;;4.18;2.80;;;;;;;24.89;39.86;101021.25;5398572;33;34222;-92
2022/06/03 08:04:06;;;;;;;4.60;2.92;;;;;;;25.01;39.13;101021.13;5398564;33;33706;-92
2022/06/03 08:10:59;;;;;;;4.62;3.37;;;;;;;25.02;39.56;101020.75;5395136;33;33966;-91
2022/06/03 08:14:03;;;;;;;6.00;2.78;;;;;;;25.16;37.91;101017.50;5397329;33;33606;-92
2022/06/03 08:17:09;;;;;;;3.95;3.05;;;;;;;25.19;38.98;101014.03;5397798;33;33579;-92
2022/06/03 08:20:12;;;;;;;6.28;3.08;;;;;;;25.25;38.71;101004.34;5398042;33;33620;-92
2022/06/03 08:23:18;;;;;;;3.85;2.90;;;;;;;25.25;40.07;101011.78;5398070;33;33732;-92
2022/06/03 08:26:23;;;;;;;4.68;3.00;;;;;;;25.29;40.12;101009.91;5396928;33;33563;-92
2022/06/03 08:29:36;;;;;;;;;;;;;;;25.26;39.36;101016.09;5397753;33;34391;-92
2022/06/03 08:32:44;;;;;;;3.58;2.78;;;;;;;25.22;39.73;101018.78;5398368;33;33892;-92
2022/06/03 08:35:48;;;;;;;5.50;2.65;;;;;;;25.33;40.10;101008.03;5397583;33;33605;-92
2022/06/03 08:38:56;;;;;;;4.30;3.20;;;;;;;25.36;39.29;101006.47;5397834;33;34319;-92
2022/06/03 08:42:15;;;;;;;3.10;2.70;;;;;;;25.36;39.56;101010.00;5397058;33;34293;-92
2022/06/03 08:45:27;;;;;;;5.47;3.03;;;;;;;25.33;38.69;101007.22;5379585;33;33626;-92
2022/06/03 08:48:34;;;;;;;3.53;2.90;;;;;;;25.38;38.95;101001.44;5386284;33;33246;-92
2022/06/03 08:51:46;;;;;;;6.57;3.20;;;;;;;25.41;40.29;101000.69;5397745;33;34378;-92
2022/06/03 08:54:53;;;;;;;6.75;3.37;;;;;;;25.50;38.27;100999.31;5397540;33;33668;-92
2022/06/03 08:58:06;;;;;;;5.87;2.80;;;;;;;25.42;38.48;101000.31;5397890;33;33735;-92
2022/06/03 09:01:22;;;;;;;5.25;2.83;;;;;;;25.45;39.63;101001.56;5397364;33;33740;-92
2022/06/03 09:04:33;;;;;;;4.75;3.00;;;;;;;25.49;40.00;101005.12;5397582;33;34227;-92
2022/06/03 09:07:50;;;;;;;6.32;2.90;;;;;;;25.65;40.51;101005.00;5397593;33;33786;-92
2022/06/03 09:11:08;;;;;;;4.65;3.03;;;;;;;25.63;39.92;101002.66;5397300;33;33702;-92
2022/06/03 09:14:18;;;;;;;7.22;3.30;;;;;;;25.63;38.58;101001.84;5397346;33;33753;-92
2022/06/03 09:17:52;;;;;;;3.15;2.87;;;;;;;25.68;39.45;101005.06;5394692;33;33146;-92
2022/06/03 09:21:01;;;;;;;4.53;3.03;;;;;;;25.69;39.77;100989.37;5397131;33;34345;-92
2022/06/03 09:24:14;;;;;;;4.60;3.12;;;;;;;25.72;39.76;100991.41;5397107;33;34264;-92
2022/06/03 09:27:17;;;;;;;4.47;2.95;;;;;;;25.74;39.70;100992.63;5396588;33;33420;-92
2022/06/03 09:30:29;;;;;;;5.87;3.50;;;;;;;25.77;40.58;100991.09;5398380;33;33859;-92
2022/06/03 09:33:33;;;;;;;3.67;2.92;;;;;;;25.83;40.09;100994.34;5399695;33;34272;-92
2022/06/03 09:36:35;;;;;;;5.12;3.03;;;;;;;25.94;39.93;100992.56;5399602;33;34400;-92
2022/06/03 09:39:38;;;;;;;4.50;3.17;;;;;;;25.92;39.57;100986.63;5399722;33;34370;-92
2022/06/03 09:42:49;;;;;;;6.85;3.30;;;;;;;25.95;39.92;100996.87;5399547;33;33609;-92
2022/06/03 09:45:53;;;;;;;4.93;3.17;;;;;;;25.98;39.53;100996.94;5397417;33;34354;-92
2022/06/03 09:48:57;;;;;;;9.57;3.70;;;;;;;25.97;38.22;101000.84;5399424;33;34301;-92
2022/06/03 09:52:02;;;;;;;6.28;2.90;;;;;;;25.90;39.35;101008.19;5399435;33;34516;-92
2022/06/03 09:55:17;;;;;;;4.30;3.20;;;;;;;25.96;39.41;101007.50;5398828;33;34310;-92
2022/06/03 09:58:29;;;;;;;5.28;3.33;;;;;;;25.91;40.63;100996.81;5396647;32;33703;-92
2022/06/03 10:01:31;;;;;;;5.68;3.28;;;;;;;26.10;40.64;101009.66;5399325;33;33708;-92
2022/06/03 10:04:34;;;;;;;5.20;3.50;;;;;;;26.18;39.69;101005.84;5399423;33;34248;-92
2022/06/03 10:07:36;;;;;;;6.12;3.67;;;;;;;26.18;38.91;101005.06;5399376;33;34325;-92
2022/06/03 10:14:00;;;;;;;3.45;2.75;;;;;;;26.32;38.76;101005.25;5399395;33;34302;-92
2022/06/03 10:17:05;;;;;;;5.65;2.90;;;;;;;26.25;37.81;101010.66;5399402;33;33754;-92
2022/06/03 10:20:08;;;;;;;3.63;2.93;;;;;;;26.30;38.20;100996.59;5399006;33;34741;-92
2022/06/03 10:23:12;;;;;;;7.15;2.85;;;;;;;26.23;38.04;100996.50;5399035;33;33659;-92
2022/06/03 10:26:48;;;;;;;8.05;2.95;;;;;;;26.28;39.11;101006.37;5399119;33;33709;-92
2022/06/03 10:29:52;;;;;;;9.90;3.05;;;;;;;26.31;38.83;101000.91;5399031;33;33315;-92
2022/06/03 10:32:54;;;;;;;6.43;2.85;;;;;;;26.41;38.47;101005.75;5399161;33;33818;-92
2022/06/03 10:35:59;;;;;;;5.35;3.55;;;;;;;26.39;38.49;100999.87;5399253;33;34258;-92
2022/06/03 10:39:03;;;;;;;7.30;2.97;;;;;;;26.42;38.48;100992.81;5399000;33;34326;-92
2022/06/03 10:42:05;;;;;;;5.05;2.97;;;;;;;26.43;37.43;100980.66;5399174;33;34444;-92
2022/06/03 10:45:08;;;;;;;3.10;2.78;;;;;;;26.48;37.59;100983.88;5399131;33;33693;-92
2022/06/03 10:48:23;;;;;;;5.80;2.97;;;;;;;26.43;38.85;100978.72;5398909;33;33356;-92
2022/06/03 11:01:44;;;;;;;4.97;2.87;;;;;;;26.55;37.64;100963.94;5380126;33;34366;-93
2022/06/03 11:04:46;;;;;;;2.70;2.50;;;;;;;26.64;37.44;100952.66;5380655;33;33723;-92
2022/06/03 11:08:07;;;;;;;3.65;2.70;;;;;;;26.70;37.89;100949.19;5380173;33;34437;-93
2022/06/03 11:11:09;;;;;;;3.17;2.87;;;;;;;26.70;37.42;100953.91;5380604;33;33592;-93
2022/06/03 11:14:32;;;;;;;5.05;2.50;;;;;;;26.77;36.96;100945.72;5380520;33;33382;-93
2022/06/03 11:17:40;;;;;;;4.62;2.50;;;;;;;26.75;37.43;100950.03;5380401;33;33621;-92
2022/06/03 11:20:46;;;;;;;3.97;2.28;;;;;;;26.95;36.99;100943.16;5380430;33;33628;-92
2022/06/03 11:23:49;;;;;;;3.03;2.28;;;;;;;27.12;36.26;100944.50;5380448;33;34423;-92
2022/06/03 11:26:52;;;;;;;2.70;2.40;;;;;;;27.04;36.18;100934.59;5380200;33;33345;-92
2022/06/03 11:30:01;;;;;;;2.60;2.30;;;;;;;27.06;36.20;100932.28;5380378;33;33280;-92
2022/06/03 11:33:08;;;;;;;3.35;2.50;;;;;;;27.12;36.39;100934.28;5380350;33;34339;-92
2022/06/03 11:36:32;;;;;;;3.58;2.50;;;;;;;27.15;35.84;100930.81;5380603;33;33945;-92
2022/06/03 11:39:40;;;;;;;3.67;2.53;;;;;;;27.14;35.74;100917.41;5380499;33;33717;-92
2022/06/03 11:42:58;;;;;;;4.93;2.55;;;;;;;27.10;36.62;100920.09;5380005;33;33643;-92
2022/06/03 11:46:28;;;;;;;4.20;2.60;;;;;;;27.02;35.53;100915.72;5380232;33;33654;-92
2022/06/03 11:49:31;;;;;;;4.05;2.55;;;;;;;26.99;36.26;100908.22;5382024;33;33773;-93
2022/06/03 11:52:37;;;;;;;4.50;2.62;;;;;;;27.05;35.27;100892.97;5397906;33;34412;-93
2022/06/03 11:55:39;;;;;;;5.53;2.70;;;;;;;27.07;35.36;100887.84;5398402;33;33760;-92
2022/06/03 11:59:01;;;;;;;3.58;2.60;;;;;;;27.05;35.15;100892.97;5398403;33;33789;-93
2022/06/03 12:02:41;;;;;;;3.95;2.33;;;;;;;27.15;36.08;100886.78;5398456;33;34525;-93
2022/06/03 12:05:54;;;;;;;4.47;2.62;;;;;;;27.26;35.61;100881.34;5398586;33;33346;-93
2022/06/03 12:09:06;;;;;;;3.03;2.25;;;;;;;27.20;36.23;100882.88;5398705;33;33689;-92
2022/06/03 12:15:57;;;;;;;5.37;2.42;;;;;;;27.23;35.38;100865.59;5383827;33;33791;-93
2022/06/03 12:19:02;;;;;;;5.50;2.50;;;;;;;27.19;35.30;100861.25;5398380;33;33730;-93
2022/06/03 12:22:29;;;;;;;5.57;2.50;;;;;;;27.05;35.45;100851.69;5396836;33;33155;-92
2022/06/03 12:25:52;;;;;;;6.10;2.72;;;;;;;27.08;35.72;100847.34;5396307;33;33644;-93
2022/06/03 12:29:17;;;;;;;7.22;2.60;;;;;;;27.09;36.56;100848.97;5397673;33;33639;-93
2022/06/03 12:32:28;;;;;;;3.42;2.45;;;;;;;27.16;35.48;100843.53;5398217;33;33634;-93
2022/06/03 12:35:42;;;;;;;3.12;2.50;;;;;;;27.15;35.55;100834.50;5396669;33;34340;-93
2022/06/03 12:38:54;;;;;;;5.05;2.40;;;;;;;27.25;34.68;100835.75;5397672;33;33755;-90
2022/06/03 12:42:37;;;;;;;3.67;2.40;;;;;;;27.34;35.47;100832.63;5397438;33;33793;-90
2022/06/03 12:46:06;;;;;;;6.97;2.60;;;;;;;27.30;35.22;100829.06;5396655;33;33723;-90
2022/06/03 12:49:23;;;;;;;4.10;2.50;;;;;;;27.40;35.77;100820.09;5397526;33;33674;-90
2022/06/03 12:52:25;;;;;;;3.83;2.78;;;;;;;27.50;35.08;100816.59;5396645;33;33599;-90
2022/06/03 12:55:32;;;;;;;4.50;3.12;;;;;;;27.64;35.33;100807.63;5397355;33;33807;-90
2022/06/03 12:58:45;;;;;;;3.12;2.70;;;;;;;27.71;35.41;100815.12;5397209;33;33675;-90
2022/06/03 13:02:00;;;;;;;5.15;2.50;;;;;;;27.74;34.27;100808.84;5398069;33;34542;-90
2022/06/03 13:05:24;;;;;;;4.40;2.65;;;;;;;27.84;35.37;100806.16;5398907;33;34422;-91
2022/06/03 13:08:26;;;;;;;5.50;3.08;;;;;;;27.82;35.00;100803.03;5400180;33;34248;-90
2022/06/03 13:11:31;;;;;;;4.87;2.40;;;;;;;27.66;34.34;100804.50;5400235;33;33803;-90
2022/06/03 13:14:33;;;;;;;5.30;2.37;;;;;;;27.59;34.70;100786.75;5400296;33;33766;-90
2022/06/03 13:18:03;;;;;;;5.97;2.40;;;;;;;27.70;34.17;100788.78;5400191;33;33614;-90
2022/06/03 13:21:05;;;;;;;3.08;2.30;;;;;;;27.82;33.28;100785.72;5400387;33;33615;-90
2022/06/03 13:24:26;;;;;;;4.75;2.62;;;;;;;27.81;34.02;100786.88;5400167;33;34285;-90
2022/06/03 13:27:29;;;;;;;4.07;2.15;;;;;;;27.89;34.23;100780.22;5398792;33;33771;-90
2022/06/03 13:30:37;;;;;;;7.60;2.37;;;;;;;27.95;33.81;100783.41;5400065;33;34373;-90
2022/06/03 13:33:58;;;;;;;3.47;1.95;;;;;;;27.97;34.31;100779.06;5400102;33;33738;-90
2022/06/03 13:37:21;;;;;;;5.15;2.15;;;;;;;28.01;33.89;100779.06;5400042;33;33776;-90
2022/06/03 13:40:23;;;;;;;3.72;2.20;;;;;;;28.06;33.64;100778.69;5400090;33;33894;-90
2022/06/03 13:43:26;;;;;;;3.17;1.90;;;;;;;28.12;32.59;100773.59;5400049;33;33641;-90
2022/06/03 13:46:30;;;;;;;3.83;2.00;;;;;;;28.15;33.12;100772.81;5400017;33;33483;-90
2022/06/03 13:49:34;;;;;;;4.20;2.12;;;;;;;28.17;32.47;100771.22;5399889;33;33247;-90
2022/06/03 13:52:40;;;;;;;3.67;2.00;;;;;;;28.37;32.14;100774.41;5400106;33;34244;-90
2022/06/03 13:55:52;;;;;;;4.30;2.10;;;;;;;28.27;32.19;100766.91;5399702;33;33641;-90
2022/06/03 13:58:57;;;;;;;4.53;1.83;;;;;;;28.26;31.99;100770.88;5399838;33;33639;-90
2022/06/03 14:02:00;;;;;;;4.55;1.62;;;;;;;28.27;31.69;100772.44;5399799;33;33699;-90
2022/06/03 14:05:09;;;;;;;3.33;1.95;;;;;;;28.20;32.61;100764.16;5399848;33;34363;-90
2022/06/03 14:08:30;;;;;;;6.82;2.00;;;;;;;28.22;32.65;100759.06;5399734;33;34332;-90
2022/06/03 14:11:39;;;;;;;5.18;1.90;;;;;;;28.21;33.11;100755.50;5399760;33;34438;-90
2022/06/03 14:14:56;;;;;;;4.68;2.03;;;;;;;28.21;33.57;100752.75;5399617;33;34457;-90
2022/06/03 14:17:59;;;;;;;4.72;2.00;;;;;;;28.18;33.44;100756.28;5399488;33;33802;-90
2022/06/03 14:21:01;;;;;;;3.75;1.83;;;;;;;28.21;32.93;100740.91;5399490;33;34440;-90
2022/06/03 14:24:21;;;;;;;4.85;1.80;;;;;;;28.23;33.09;100738.56;5399666;33;33870;-90
2022/06/03 14:27:29;;;;;;;3.67;2.00;;;;;;;28.26;33.20;100743.28;5399429;33;33309;-90
2022/06/03 14:30:56;;;;;;;2.92;1.95;;;;;;;28.36;33.26;100741.72;5399682;33;33654;-90
2022/06/03 14:34:11;;;;;;;3.97;1.87;;;;;;;28.38;32.95;100748.44;5399628;33;34304;-90
2022/06/03 14:37:19;;;;;;;2.30;1.90;;;;;;;28.32;33.81;100738.97;5399525;33;33966;-90
2022/06/03 14:40:26;;;;;;;3.05;1.90;;;;;;;28.18;33.13;100727.91;5399381;33;33678;-90
2022/06/03 14:43:30;;;;;;;4.72;2.30;;;;;;;28.21;32.76;100735.41;5399598;33;33802;-90
2022/06/03 14:46:51;;;;;;;3.03;2.03;;;;;;;28.07;32.96;100725.94;5399488;33;34305;-91
